Atlantic - Newfoundland: Past 24 Hour Conditions

 

Ferolle Point

12:30 PM NST 22 November 2014
This table is a summary of hourly weather conditions for the past 24 hours.
Date / Time
(NST)
Wind(knots) Conditions Visibility(km) Pressure(kPa) Air tempC) Relative humidity(%) Dew pointC) Wind Chill
22 November 2014
12:30 W 29 gust 36 N/A N/A 99.9 -6 77 -9 -17
11:30 W 28 gust 34 N/A N/A 99.9 -6 80 -9 -17
10:30 W 29 gust 34 N/A N/A 99.9 -7 83 -9 -18
9:30 WNW 30 gust 35 N/A N/A 99.8 -7 84 -9 -17
8:30 WNW 28 gust 35 N/A N/A 99.8 -7 83 -9 -17
7:30 W 34 gust 40 N/A N/A 99.7 -7 81 -10 -18
6:30 W 29 gust 35 N/A N/A 99.6 -7 79 -10 -18
5:30 WNW 28 gust 36 N/A N/A 99.6 -7 79 -10 -17
4:30 WNW 30 gust 35 N/A N/A 99.6 -7 78 -10 -18
3:30 WNW 31 gust 36 N/A N/A 99.5 -7 78 -10 -18
2:30 WNW 29 gust 36 N/A N/A 99.5 -6 77 -10 -17
1:30 WNW 27 gust 36 N/A N/A 99.4 -6 79 -9 -17
0:30 WNW 29 N/A N/A 99.4 -6 83 -9 -17
21 November 2014
23:30 WNW 25 gust 32 N/A N/A 99.4 -6 91 -7 -16
22:30 WNW 24 gust 31 N/A N/A 99.4 -6 91 -7 -16
21:30 WNW 25 gust 31 N/A N/A 99.4 -6 91 -8 -16
20:30 NW 23 gust 29 N/A N/A 99.4 -5 84 -8 -15
19:30 WNW 22 gust 27 N/A N/A 99.3 -5 82 -8 -14
18:30 NW 26 N/A N/A 99.2 -5 84 -7 -15
17:30 WNW 23 N/A N/A 99.2 -4 84 -7 -14
16:30 W 22 gust 27 N/A N/A 99.1 -4 86 -6 -13
15:30 W 21 gust 28 N/A N/A 99.1 -3 87 -5 -11
14:30 WSW 20 N/A N/A 99.1 -2 87 -4 -9
13:30 WSW 18 N/A N/A 99.1 -1 88 -2 -7
12:30 WSW 19 gust 27 N/A N/A 99.1 1 84 -2 *
 
Map of Atlantic - Newfoundland marine weather areas Southwestern Grand Banks - 44138 Banquereau - 44139 Tail of the Bank - 44140 Nickerson Bank - 44251 Northeast Burgeo Bank - 44255 Blanc-Sablon Airport Cap Whittle Chevery Natashquan Airport Heath Point Miscou Island Grand Étang Ingonish Beach North Mountain St.Paul Island J.A. Douglas McCurdy Sydney Airport Charlottetown Airport East Point North Cape Argentia Bonavista Burgeo Cape Race Corner Brook Daniel's Harbour Englee Ferolle Point La Scie Port aux Basques Rocky Harbour Sagona Island St. Anthony Airport St. John's Int'l Airport St. Lawrence Stephenville Airport Twillingate Winterland Wreckhouse Cartwright Airport Mary's Harbour Grates Cove Pool's Island Marticot Island Long Pond Îles de la Madeleine Airport
Legend: buoyBuoy land stationLand Station